createdAt,value
2018-03-22T00:00:20.159Z,64.78
2018-03-22T00:01:30.215Z,64.68
2018-03-22T00:02:40.519Z,65.44
2018-03-22T00:03:50.383Z,65.34
2018-03-22T00:05:00.097Z,65.53
2018-03-22T00:06:09.968Z,65.25
2018-03-22T00:07:19.686Z,65.82
2018-03-22T00:08:29.819Z,65.91
2018-03-22T00:09:39.989Z,65.82
2018-03-22T00:10:49.882Z,65.16
2018-03-22T00:12:00.032Z,65.72
2018-03-22T00:13:10.175Z,65.44
2018-03-22T00:14:21.010Z,65.25
2018-03-22T00:15:32.127Z,65.72
2018-03-22T00:16:41.742Z,65.16
2018-03-22T00:17:51.947Z,65.44
2018-03-22T00:19:01.861Z,65.34
2018-03-22T00:20:12.028Z,65.34
2018-03-22T00:21:21.580Z,65.63
2018-03-22T00:22:31.154Z,65.72
2018-03-22T00:23:41.308Z,65.34
2018-03-22T00:24:51.089Z,65.06
2018-03-22T00:26:01.217Z,65.34
2018-03-22T00:27:12.348Z,65.34
2018-03-22T00:28:22.236Z,65.44
2018-03-22T00:29:32.400Z,65.44
2018-03-22T00:30:42.530Z,65.44
2018-03-22T00:31:52.031Z,65.31
2018-03-22T00:33:02.015Z,65.34
2018-03-22T00:34:11.898Z,65.53
2018-03-22T00:35:21.657Z,65.82
2018-03-22T00:36:31.514Z,65.63
2018-03-22T00:37:41.490Z,65.82
2018-03-22T00:38:51.351Z,65.72
2018-03-22T00:40:01.319Z,65.72
2018-03-22T00:41:11.467Z,65.91
2018-03-22T00:42:21.655Z,65.82
2018-03-22T00:43:31.671Z,65.82
2018-03-22T00:44:41.876Z,65.91
2018-03-22T00:45:52.057Z,66.48
2018-03-22T00:47:02.206Z,66.45
2018-03-22T00:48:12.354Z,66.16
2018-03-22T00:49:22.020Z,66.16
2018-03-22T00:50:31.778Z,66.26
2018-03-22T00:51:42.604Z,66.26
2018-03-22T00:52:52.752Z,66.54
2018-03-22T00:54:02.629Z,66.35
2018-03-22T00:55:12.586Z,65.97
2018-03-22T00:56:22.712Z,66.83
2018-03-22T00:57:32.876Z,66.64
2018-03-22T00:58:42.989Z,66.54
2018-03-22T00:59:52.855Z,66.64
2018-03-22T01:01:02.774Z,67.3
2018-03-22T01:02:12.324Z,67.02
2018-03-22T01:03:22.475Z,67.3
2018-03-22T01:04:31.962Z,67.49
2018-03-22T01:05:42.094Z,67.68
2018-03-22T01:06:51.773Z,67.3
2018-03-22T01:08:01.908Z,67.3
2018-03-22T01:09:11.604Z,67.3
2018-03-22T01:10:21.449Z,66.83
2018-03-22T01:11:31.344Z,67.11
2018-03-22T01:12:41.491Z,67.68
2018-03-22T01:13:51.467Z,67.3
2018-03-22T01:15:01.327Z,67.58
2018-03-22T01:16:11.925Z,67.3
2018-03-22T01:17:22.151Z,67.58
2018-03-22T01:18:31.639Z,67.68
2018-03-22T01:19:41.742Z,67.58
2018-03-22T01:20:51.901Z,67.49
2018-03-22T01:22:01.787Z,67.87
2018-03-22T01:23:11.894Z,67.87
2018-03-22T01:24:21.719Z,67.96
2018-03-22T01:25:31.709Z,67.96
2018-03-22T01:26:41.580Z,67.77
2018-03-22T01:27:51.745Z,68.06
2018-03-22T01:29:01.824Z,67.87
2018-03-22T01:30:11.732Z,67.96
2018-03-22T01:31:21.597Z,67.96
2018-03-22T01:32:31.748Z,67.96
2018-03-22T01:33:41.891Z,67.96
2018-03-22T01:34:52.018Z,68.25
2018-03-22T01:36:01.398Z,68.44
2018-03-22T01:37:11.250Z,68.44
2018-03-22T01:38:22.561Z,68.54
2018-03-22T01:39:32.068Z,68.06
2018-03-22T01:40:41.986Z,67.96
2018-03-22T01:41:52.091Z,67.87
2018-03-22T01:43:02.000Z,68.25
2018-03-22T01:44:12.108Z,68.63
2018-03-22T01:45:22.204Z,68.06
2018-03-22T01:46:32.315Z,68.25
2018-03-22T01:47:42.513Z,68.25
2018-03-22T01:48:52.458Z,68.35
2018-03-22T01:50:02.441Z,68.44
2018-03-22T01:51:12.289Z,68.35
2018-03-22T01:52:22.168Z,68.35
2018-03-22T01:53:32.325Z,68.35
2018-03-22T01:54:42.237Z,68.44
2018-03-22T01:55:52.464Z,68.54
2018-03-22T01:57:02.446Z,68.35
2018-03-22T01:58:12.602Z,68.25
2018-03-22T01:59:22.738Z,68.82
2018-03-22T02:00:32.522Z,68.91
2018-03-22T02:01:42.701Z,69.1
2018-03-22T02:02:53.046Z,69.29
2018-03-22T02:04:03.160Z,69.1
2018-03-22T02:05:13.442Z,69.2
2018-03-22T02:06:23.669Z,69.1
2018-03-22T02:07:33.822Z,68.73
2018-03-22T02:08:44.121Z,69.29
2018-03-22T02:09:54.315Z,69.2
2018-03-22T02:11:04.587Z,68.91
2018-03-22T02:12:14.081Z,69.1
2018-03-22T02:13:24.228Z,69.01
2018-03-22T02:14:34.338Z,69.48
2018-03-22T02:15:44.458Z,69.67
2018-03-22T02:16:54.587Z,69.67
2018-03-22T02:18:04.200Z,69.48
2018-03-22T02:19:14.347Z,69.38
2018-03-22T02:20:24.455Z,69.77
2018-03-22T02:21:34.604Z,69.86
2018-03-22T02:22:44.226Z,70.05
2018-03-22T02:23:53.788Z,69.48
2018-03-22T02:25:03.558Z,69.86
2018-03-22T02:26:13.145Z,70.43
2018-03-22T02:27:23.273Z,70.15
2018-03-22T02:28:33.441Z,70.34
2018-03-22T02:29:43.310Z,70.24
2018-03-22T02:30:53.166Z,70.05
2018-03-22T02:32:02.700Z,70.05
2018-03-22T02:33:12.906Z,70.53
2018-03-22T02:34:23.013Z,70.53
2018-03-22T02:35:32.725Z,70.43
2018-03-22T02:36:43.038Z,70.62
2018-03-22T02:37:53.240Z,70.43
2018-03-22T02:39:03.192Z,70.62
2018-03-22T02:40:13.298Z,70.62
2018-03-22T02:41:22.895Z,70.62
2018-03-22T02:42:33.182Z,70.53
2018-03-22T02:43:42.712Z,70.72
2018-03-22T02:44:51.977Z,70.62
2018-03-22T02:46:01.574Z,70.43
2018-03-22T02:47:11.443Z,70.53
2018-03-22T02:48:21.208Z,70.53
2018-03-22T02:49:30.724Z,70.43
2018-03-22T02:50:40.905Z,70.53
2018-03-22T02:51:51.068Z,70.43
2018-03-22T02:53:01.261Z,70.53
2018-03-22T02:54:11.433Z,70.53
2018-03-22T02:55:21.570Z,70.53
2018-03-22T02:56:31.708Z,70.43
2018-03-22T02:57:41.636Z,70.53
2018-03-22T02:58:51.137Z,70.62
2018-03-22T03:00:00.797Z,70.24
2018-03-22T03:01:10.942Z,70.53
2018-03-22T03:02:21.167Z,70.53
2018-03-22T03:03:31.320Z,70.43
2018-03-22T03:04:41.104Z,70.72
2018-03-22T03:05:51.232Z,70.34
2018-03-22T03:07:00.845Z,70.72
2018-03-22T03:08:10.818Z,70.62
2018-03-22T03:09:20.961Z,70.43
2018-03-22T03:10:31.184Z,70.62
2018-03-22T03:11:41.331Z,70.9
2018-03-22T03:12:51.511Z,71.09
2018-03-22T03:14:01.643Z,70.72
2018-03-22T03:15:11.773Z,70.62
2018-03-22T03:16:21.392Z,70.24
2018-03-22T03:17:31.147Z,70.43
2018-03-22T03:18:40.642Z,70.43
2018-03-22T03:19:50.803Z,70.62
2018-03-22T03:21:00.377Z,70.43
2018-03-22T03:22:10.537Z,70.62
2018-03-22T03:23:20.772Z,70.34
2018-03-22T03:24:30.902Z,70.53
2018-03-22T03:25:41.111Z,70.34
2018-03-22T03:26:50.979Z,70.62
2018-03-22T03:28:00.527Z,70.34
2018-03-22T03:29:10.615Z,70.24
2018-03-22T03:30:20.818Z,70.43
2018-03-22T03:31:31.242Z,70.72
2018-03-22T03:32:41.442Z,70.72
2018-03-22T03:33:51.366Z,70.62
2018-03-22T03:35:01.484Z,70.62
2018-03-22T03:36:11.368Z,70.62
2018-03-22T03:37:21.254Z,70.53
2018-03-22T03:38:31.386Z,70.72
2018-03-22T03:39:40.880Z,70.9
2018-03-22T03:40:50.768Z,70.9
2018-03-22T03:42:00.641Z,70.72
2018-03-22T03:43:10.519Z,70.53
2018-03-22T03:44:20.405Z,70.9
2018-03-22T03:45:30.276Z,71
2018-03-22T03:46:40.356Z,71.57
2018-03-22T03:47:50.565Z,71.09
2018-03-22T03:49:00.171Z,71.28
2018-03-22T03:50:10.075Z,71.19
2018-03-22T03:51:20.264Z,71.09
2018-03-22T03:52:30.430Z,71.19
2018-03-22T03:53:40.644Z,70.9
2018-03-22T03:54:50.511Z,71
2018-03-22T03:56:00.389Z,71.09
2018-03-22T03:57:10.162Z,71
2018-03-22T03:58:20.019Z,70.81
2018-03-22T03:59:30.163Z,71
2018-03-22T04:00:39.775Z,71.19
2018-03-22T04:01:49.894Z,70.72
2018-03-22T04:03:00.070Z,70.62
2018-03-22T04:04:10.203Z,70.62
2018-03-22T04:05:20.340Z,70.53
2018-03-22T04:06:30.452Z,71.19
2018-03-22T04:07:40.237Z,70.62
2018-03-22T04:08:50.114Z,70.9
2018-03-22T04:10:00.358Z,70.81
2018-03-22T04:11:10.479Z,71
2018-03-22T04:12:20.646Z,70.81
2018-03-22T04:13:30.540Z,71
2018-03-22T04:14:40.692Z,71.19
2018-03-22T04:15:50.849Z,70.72
2018-03-22T04:17:00.704Z,70.62
2018-03-22T04:18:10.553Z,70.62
2018-03-22T04:19:20.722Z,71
2018-03-22T04:20:30.891Z,70.53
2018-03-22T04:21:40.513Z,71.19
2018-03-22T04:22:50.450Z,70.62
2018-03-22T04:24:00.337Z,70.72
2018-03-22T04:25:10.446Z,70.62
2018-03-22T04:26:20.286Z,70.62
2018-03-22T04:27:30.294Z,70.62
2018-03-22T04:28:40.569Z,70.15
2018-03-22T04:29:50.435Z,70.62
2018-03-22T04:30:59.686Z,70.53
2018-03-22T04:32:09.794Z,70.43
2018-03-22T04:33:19.680Z,70.53
2018-03-22T04:34:29.749Z,70.43
2018-03-22T04:35:39.503Z,70.53
2018-03-22T04:36:49.744Z,70.53
2018-03-22T04:37:59.875Z,70.24
2018-03-22T04:39:10.019Z,70.53
2018-03-22T04:40:20.176Z,70.53
2018-03-22T04:41:30.067Z,70.53
2018-03-22T04:42:39.908Z,70.15
2018-03-22T04:43:50.027Z,70.15
2018-03-22T04:45:00.157Z,70.15
2018-03-22T04:46:10.030Z,69.77
2018-03-22T04:47:20.079Z,69.77
2018-03-22T04:48:29.963Z,69.86
2018-03-22T04:49:39.779Z,70.05
2018-03-22T04:50:49.911Z,69.38
2018-03-22T04:52:00.070Z,69.38
2018-03-22T04:53:09.721Z,69.38
2018-03-22T04:54:19.925Z,69.77
2018-03-22T04:55:30.103Z,69.38
2018-03-22T04:56:40.375Z,69.38
2018-03-22T04:57:50.490Z,70.05
2018-03-22T04:59:00.611Z,69.77
2018-03-22T05:00:10.779Z,70.43
2018-03-22T05:01:20.647Z,70.15
2018-03-22T05:02:30.538Z,69.96
2018-03-22T05:03:40.642Z,70.15
2018-03-22T05:04:50.757Z,70.15
2018-03-22T05:06:00.906Z,70.53
2018-03-22T05:07:11.066Z,70.53
2018-03-22T05:08:21.360Z,70.43
2018-03-22T05:09:31.537Z,71
2018-03-22T05:10:41.659Z,70.9
2018-03-22T05:11:51.814Z,71.19
2018-03-22T05:13:01.997Z,72.04
2018-03-22T05:14:12.318Z,72.04
2018-03-22T05:15:22.576Z,72.42
2018-03-22T05:16:32.424Z,73.18
2018-03-22T05:17:42.575Z,73.75
2018-03-22T05:18:52.696Z,73.65
2018-03-22T05:20:02.835Z,73.46
2018-03-22T05:21:12.945Z,73.9
2018-03-22T05:22:23.054Z,74.32
2018-03-22T05:23:33.175Z,74.66
2018-03-22T05:24:43.383Z,74.56
2018-03-22T05:25:53.557Z,75.04
2018-03-22T05:27:03.446Z,75.32
2018-03-22T05:28:13.606Z,75.7
2018-03-22T05:29:23.457Z,75.51
2018-03-22T05:30:33.586Z,76.17
2018-03-22T05:31:43.730Z,76.46
2018-03-22T05:32:53.867Z,76.84
2018-03-22T05:34:04.115Z,76.84
2018-03-22T05:35:14.008Z,76.65
2018-03-22T05:36:24.197Z,76.84
2018-03-22T05:37:34.353Z,77.4
2018-03-22T05:38:44.491Z,77.4
2018-03-22T05:39:54.705Z,77.59
2018-03-22T05:41:04.675Z,77.78
2018-03-22T05:42:14.594Z,77.97
2018-03-22T05:43:24.693Z,78.83
2018-03-22T05:44:34.323Z,78.73
2018-03-22T05:45:44.188Z,78.54
2018-03-22T05:46:55.297Z,79.11
2018-03-22T05:48:05.216Z,79.02
2018-03-22T05:49:15.356Z,79.02
2018-03-22T05:50:25.474Z,79.02
2018-03-22T05:51:35.607Z,79.3
2018-03-22T05:52:45.458Z,79.36
2018-03-22T05:53:55.588Z,79.49
2018-03-22T05:55:05.730Z,79.96
2018-03-22T05:56:15.896Z,80.21
2018-03-22T05:57:25.799Z,80.4
2018-03-22T05:58:36.924Z,80.49
2018-03-22T05:59:46.191Z,81.44
2018-03-22T06:00:56.322Z,81.2
2018-03-22T06:02:06.489Z,81.48
2018-03-22T06:03:16.627Z,82.24
2018-03-22T06:04:26.747Z,81.48
2018-03-22T06:05:36.502Z,81.15
2018-03-22T06:06:46.416Z,81.01
2018-03-22T06:07:56.290Z,81.76
2018-03-22T06:09:06.499Z,81.44
2018-03-22T06:10:16.687Z,81.82
2018-03-22T06:11:26.317Z,82.01
2018-03-22T06:12:36.351Z,82.01
2018-03-22T06:13:46.548Z,81.92
2018-03-22T06:14:56.310Z,82.2
2018-03-22T06:16:06.174Z,82.29
2018-03-22T06:17:16.498Z,82.01
2018-03-22T06:18:26.366Z,82.29
2018-03-22T06:19:36.205Z,82.2
2018-03-22T06:20:46.308Z,82.01
2018-03-22T06:21:56.060Z,82.01
2018-03-22T06:23:06.041Z,82.95
2018-03-22T06:24:15.956Z,82.86
2018-03-22T06:25:25.625Z,82.76
2018-03-22T06:26:35.496Z,82.86
2018-03-22T06:27:44.986Z,82.57
2018-03-22T06:28:54.887Z,82.86
2018-03-22T06:30:04.212Z,83.05
2018-03-22T06:31:14.338Z,83.33
2018-03-22T06:32:24.284Z,83.24
2018-03-22T06:33:33.785Z,83.33
2018-03-22T06:34:43.277Z,83.14
2018-03-22T06:35:52.528Z,83.14
2018-03-22T06:37:01.831Z,83.05
2018-03-22T06:38:11.981Z,83.52
2018-03-22T06:39:21.837Z,83.33
2018-03-22T06:40:32.073Z,83.71
2018-03-22T06:41:41.793Z,83.33
2018-03-22T06:42:51.672Z,83.52
2018-03-22T06:44:01.538Z,83.24
2018-03-22T06:45:11.409Z,83.33
2018-03-22T06:46:21.041Z,83.24
2018-03-22T06:47:31.182Z,83.24
2018-03-22T06:48:40.942Z,83.24
2018-03-22T06:49:51.092Z,83.14
2018-03-22T06:51:00.334Z,83.52
2018-03-22T06:52:09.843Z,83.14
2018-03-22T06:53:19.596Z,83.05
2018-03-22T06:54:29.986Z,83.24
2018-03-22T06:55:39.880Z,82.86
2018-03-22T06:56:49.620Z,82.86
2018-03-22T06:57:59.243Z,83.24
2018-03-22T06:59:09.132Z,83.43
2018-03-22T07:00:19.282Z,83.43
2018-03-22T07:01:29.457Z,82.95
2018-03-22T07:02:39.298Z,83.14
2018-03-22T07:03:49.154Z,83.05
2018-03-22T07:04:59.298Z,83.14
2018-03-22T07:06:09.474Z,83.24
2018-03-22T07:07:19.270Z,83.09
2018-03-22T07:08:29.198Z,82.81
2018-03-22T07:09:39.047Z,83.05
2018-03-22T07:10:49.278Z,83.62
2018-03-22T07:11:59.438Z,83.05
2018-03-22T07:13:09.318Z,83.81
2018-03-22T07:14:19.426Z,83.81
2018-03-22T07:15:29.302Z,83.24
2018-03-22T07:16:39.406Z,83.05
2018-03-22T07:17:49.548Z,83.47
2018-03-22T07:18:59.356Z,82.95
2018-03-22T07:20:09.129Z,83.28
2018-03-22T07:21:18.378Z,83.18
2018-03-22T07:22:28.738Z,83.05
2018-03-22T07:23:39.114Z,83.05
2018-03-22T07:24:49.014Z,83.28
2018-03-22T07:25:59.233Z,83.37
2018-03-22T07:27:09.165Z,83
2018-03-22T07:28:19.078Z,82.9
2018-03-22T07:29:29.198Z,83.43
2018-03-22T07:30:39.346Z,83.66
2018-03-22T07:31:49.342Z,83.09
2018-03-22T07:32:59.203Z,83.09
2018-03-22T07:34:09.316Z,83.09
2018-03-22T07:35:19.180Z,83.09
2018-03-22T07:36:29.095Z,82.9
2018-03-22T07:37:38.969Z,82.81
2018-03-22T07:38:49.289Z,82.9
2018-03-22T07:39:59.382Z,82.81
2018-03-22T07:41:09.495Z,82.81
2018-03-22T07:42:19.747Z,83.09
2018-03-22T07:43:29.655Z,82.62
2018-03-22T07:44:39.790Z,82.81
2018-03-22T07:45:49.746Z,82.9
2018-03-22T07:46:59.353Z,82.9
2018-03-22T07:48:09.227Z,82.9
2018-03-22T07:49:19.170Z,82.81
2018-03-22T07:50:28.555Z,82.62
2018-03-22T07:51:38.726Z,82.71
2018-03-22T07:52:48.871Z,82.9
2018-03-22T07:53:58.750Z,82.43
2018-03-22T07:55:08.601Z,82.62
2018-03-22T07:56:19.425Z,82.9
2018-03-22T07:57:29.320Z,82.71
2018-03-22T07:58:39.205Z,82.62
2018-03-22T07:59:49.079Z,82.9
2018-03-22T08:00:59.184Z,82.71
2018-03-22T08:02:09.045Z,82.62
2018-03-22T08:03:19.191Z,82.62
2018-03-22T08:04:29.321Z,82.9
2018-03-22T08:05:39.468Z,82.81
2018-03-22T08:06:49.417Z,82.62
2018-03-22T08:07:58.927Z,82.52
2018-03-22T08:09:08.797Z,82.9
2018-03-22T08:10:18.977Z,82.71
2018-03-22T08:11:28.662Z,82.62
2018-03-22T08:12:38.558Z,82.9
2018-03-22T08:13:48.764Z,82.52
2018-03-22T08:14:58.960Z,82.62
2018-03-22T08:16:09.079Z,82.71
2018-03-22T08:17:18.874Z,82.71
2018-03-22T08:18:29.035Z,82.71
2018-03-22T08:19:39.170Z,82.81
2018-03-22T08:20:49.301Z,82.9
2018-03-22T08:21:59.450Z,83.09
2018-03-22T08:23:09.419Z,82.33
2018-03-22T08:24:19.555Z,82.24
2018-03-22T08:25:29.778Z,81.95
2018-03-22T08:26:39.939Z,81.67
2018-03-22T08:27:49.835Z,81.95
2018-03-22T08:28:59.716Z,82.24
2018-03-22T08:30:09.831Z,81.99
2018-03-22T08:31:19.611Z,81.81
2018-03-22T08:32:29.376Z,82.09
2018-03-22T08:33:39.037Z,81.52
2018-03-22T08:34:49.010Z,81.14
2018-03-22T08:35:58.606Z,81.24
2018-03-22T08:37:09.465Z,80.86
2018-03-22T08:38:19.011Z,81.05
2018-03-22T08:39:29.148Z,80.86
2018-03-22T08:40:39.283Z,80.76
2018-03-22T08:41:49.185Z,80.48
2018-03-22T08:42:59.329Z,80.67
2018-03-22T08:44:08.950Z,80.67
2018-03-22T08:45:18.855Z,80.86
2018-03-22T08:46:28.722Z,80
2018-03-22T08:47:39.005Z,80
2018-03-22T08:48:48.887Z,80
2018-03-22T08:49:58.129Z,80.57
2018-03-22T08:51:08.283Z,80.67
2018-03-22T08:52:18.417Z,80.95
2018-03-22T08:53:28.731Z,80.95
2018-03-22T08:54:38.894Z,80.67
2018-03-22T08:55:49.177Z,80.76
2018-03-22T08:56:59.394Z,80.48
2018-03-22T08:58:09.506Z,81.18
2018-03-22T08:59:19.266Z,80.9
2018-03-22T09:00:29.552Z,80.9
2018-03-22T09:01:39.425Z,80.9
2018-03-22T09:02:49.067Z,81.09
2018-03-22T09:03:59.285Z,81.09
2018-03-22T09:05:09.158Z,81.56
2018-03-22T09:06:19.330Z,80.8
2018-03-22T09:07:29.229Z,80.9
2018-03-22T09:08:39.354Z,81.09
2018-03-22T09:09:49.651Z,80.99
2018-03-22T09:10:59.809Z,80.9
2018-03-22T09:12:09.658Z,81.09
2018-03-22T09:13:20.211Z,81.56
2018-03-22T09:14:32.240Z,81.27
2018-03-22T09:15:44.679Z,80.9
2018-03-22T09:16:55.919Z,80.9
2018-03-22T09:18:06.704Z,80.99
2018-03-22T09:19:18.151Z,81.18
2018-03-22T09:20:29.205Z,80.8
2018-03-22T09:21:40.721Z,80.62
2018-03-22T09:22:52.424Z,80.9
2018-03-22T09:24:03.245Z,80.71
2018-03-22T09:25:14.628Z,80.52
2018-03-22T09:26:26.234Z,80.9
2018-03-22T09:27:37.861Z,80.9
2018-03-22T09:28:49.539Z,80.04
2018-03-22T09:30:00.828Z,80.04
2018-03-22T09:31:11.923Z,80.04
2018-03-22T09:32:22.906Z,80.04
2018-03-22T09:33:33.715Z,80.24
2018-03-22T09:34:44.229Z,80.43
2018-03-22T09:35:54.440Z,80.33
2018-03-22T09:37:04.326Z,80.24
2018-03-22T09:38:14.494Z,80.14
2018-03-22T09:39:24.646Z,80.24
2018-03-22T09:40:34.422Z,80.52
2018-03-22T09:41:44.542Z,79.95
2018-03-22T09:42:54.810Z,79.85
2018-03-22T09:44:36.445Z,79.85
2018-03-22T09:45:46.458Z,80.43
2018-03-22T09:46:56.195Z,80.52
2018-03-22T09:48:06.382Z,79.95
2018-03-22T09:49:16.577Z,79.85
2018-03-22T09:50:26.608Z,79.85
2018-03-22T09:51:36.155Z,79.85
2018-03-22T09:52:46.336Z,80.24
2018-03-22T09:53:56.190Z,80.14
2018-03-22T09:55:05.992Z,80.43
2018-03-22T09:56:16.185Z,80.33
2018-03-22T09:57:26.145Z,80.52
2018-03-22T09:58:48.989Z,80.8
2018-03-22T09:59:59.201Z,81.27
2018-03-22T10:01:09.398Z,81.47
2018-03-22T10:02:19.546Z,82.04
2018-03-22T10:03:29.921Z,82.23
2018-03-22T10:04:40.086Z,82.23
2018-03-22T10:05:50.341Z,82.04
2018-03-22T10:07:00.260Z,81.94
2018-03-22T10:08:10.133Z,82.32
2018-03-22T10:09:20.069Z,82.89
2018-03-22T10:10:29.660Z,82.7
2018-03-22T10:12:52.088Z,83.13
2018-03-22T10:14:01.967Z,82.89
2018-03-22T10:15:12.146Z,83.13
2018-03-22T10:16:22.477Z,83.7
2018-03-22T10:17:32.729Z,83.13
2018-03-22T10:18:42.851Z,83.8
2018-03-22T10:19:53.000Z,83.8
2018-03-22T10:21:04.308Z,84.08
2018-03-22T10:22:14.441Z,84.08
2018-03-22T10:23:24.618Z,84.08
2018-03-22T10:24:34.806Z,84.46
2018-03-22T10:25:45.037Z,83.98
2018-03-22T10:26:55.251Z,84.36
2018-03-22T10:28:05.478Z,84.08
2018-03-22T10:29:15.777Z,84.46
2018-03-22T10:30:25.944Z,84.36
2018-03-22T10:31:36.262Z,84.41
2018-03-22T10:32:46.493Z,84.98
2018-03-22T10:33:56.743Z,84.78
2018-03-22T10:35:06.258Z,84.98
2018-03-22T10:36:16.175Z,84.5
2018-03-22T10:37:26.408Z,84.31
2018-03-22T10:38:36.573Z,84.69
2018-03-22T10:39:46.177Z,84.78
2018-03-22T10:40:56.362Z,84.98
2018-03-22T10:42:06.500Z,84.98
2018-03-22T10:43:16.886Z,84.59
2018-03-22T10:44:26.817Z,84.78
2018-03-22T10:45:36.941Z,85.07
2018-03-22T10:46:46.448Z,84.78
2018-03-22T10:47:56.388Z,84.69
2018-03-22T10:49:05.401Z,84.98
2018-03-22T10:50:15.276Z,84.31
2018-03-22T10:51:24.802Z,84.59
2018-03-22T10:52:34.685Z,84.41
2018-03-22T10:53:44.651Z,84.41
2018-03-22T10:54:54.808Z,84.5
2018-03-22T10:56:04.950Z,84.12
2018-03-22T10:57:15.102Z,84.41
2018-03-22T10:58:25.345Z,84.64
2018-03-22T10:59:35.352Z,83.97
2018-03-22T11:00:45.349Z,83.88
2018-03-22T11:01:55.133Z,84.36
2018-03-22T11:03:04.764Z,84.17
2018-03-22T11:04:14.690Z,83.88
2018-03-22T11:05:24.811Z,84.17
2018-03-22T11:06:34.798Z,84.17
2018-03-22T11:07:44.929Z,83.88
2018-03-22T11:08:55.043Z,84.17
2018-03-22T11:10:04.954Z,84.07
2018-03-22T11:11:14.906Z,83.78
2018-03-22T11:12:24.815Z,84.36
2018-03-22T11:13:34.928Z,83.88
2018-03-22T11:14:44.640Z,84.07
2018-03-22T11:15:54.877Z,84.17
2018-03-22T11:17:05.019Z,84.07
2018-03-22T11:18:14.917Z,84.26
2018-03-22T11:19:25.099Z,84.36
2018-03-22T11:20:34.952Z,84.26
2018-03-22T11:21:45.068Z,84.26
2018-03-22T11:22:54.992Z,83.69
2018-03-22T11:24:04.904Z,83.78
2018-03-22T11:25:15.101Z,83.22
2018-03-22T11:26:24.729Z,83.31
2018-03-22T11:27:34.520Z,83.5
2018-03-22T11:28:44.140Z,83.5
2018-03-22T11:29:54.303Z,83.59
2018-03-22T11:31:04.518Z,83.78
2018-03-22T11:32:14.653Z,83.78
2018-03-22T11:33:24.763Z,83.69
2018-03-22T11:34:34.776Z,83.69
2018-03-22T11:35:44.940Z,83.78
2018-03-22T11:36:55.108Z,84.07
2018-03-22T11:38:05.254Z,83.88
2018-03-22T11:39:15.393Z,84.17
2018-03-22T11:40:25.521Z,84.26
2018-03-22T11:41:35.527Z,83.45
2018-03-22T11:42:45.648Z,83.64
2018-03-22T11:43:55.797Z,84.21
2018-03-22T11:45:05.950Z,83.73
2018-03-22T11:46:16.183Z,83.26
2018-03-22T11:47:26.340Z,83.26
2018-03-22T11:48:36.521Z,83.07
2018-03-22T11:49:46.480Z,82.88
2018-03-22T11:50:56.703Z,82.78
2018-03-22T11:52:06.910Z,83.07
2018-03-22T11:53:17.081Z,83.07
2018-03-22T11:54:27.226Z,82.31
2018-03-22T11:55:37.460Z,82.97
2018-03-22T11:56:47.385Z,82.4
2018-03-22T11:57:57.506Z,82.31
2018-03-22T11:59:07.513Z,83.07
2018-03-22T12:00:17.971Z,82.88
2018-03-22T12:01:28.088Z,83.07
2018-03-22T12:02:38.360Z,83.16
2018-03-22T12:03:48.508Z,82.78
2018-03-22T12:04:58.772Z,82.88
2018-03-22T12:06:08.979Z,82.74
2018-03-22T12:07:19.423Z,82.78
2018-03-22T12:08:29.648Z,82.97
2018-03-22T12:09:39.781Z,83.12
2018-03-22T12:10:49.932Z,83.03
2018-03-22T12:12:00.126Z,83.03
2018-03-22T12:13:10.256Z,83.4
2018-03-22T12:14:20.400Z,82.93
2018-03-22T12:15:30.541Z,83.31
2018-03-22T12:16:40.509Z,83.36
2018-03-22T12:17:50.808Z,83.36
2018-03-22T12:19:01.055Z,83.54
2018-03-22T12:20:11.172Z,84.11
2018-03-22T12:21:21.048Z,84.11
2018-03-22T12:22:31.185Z,83.54
2018-03-22T12:23:41.333Z,83.73
2018-03-22T12:24:51.585Z,84.11
2018-03-22T12:26:01.854Z,84.11
2018-03-22T12:27:11.448Z,84.11
2018-03-22T12:28:21.442Z,84.4
2018-03-22T12:29:31.493Z,83.92
2018-03-22T12:30:41.721Z,84.01
2018-03-22T12:31:51.878Z,84.01
2018-03-22T12:33:02.051Z,84.01
2018-03-22T12:34:12.224Z,83.92
2018-03-22T12:35:22.131Z,84.01
2018-03-22T12:36:32.282Z,84.01
2018-03-22T12:37:42.153Z,84.01
2018-03-22T12:38:52.291Z,83.92
2018-03-22T12:40:02.424Z,84.11
2018-03-22T12:41:12.370Z,83.92
2018-03-22T12:42:22.641Z,84.01
2018-03-22T12:43:32.912Z,83.92
2018-03-22T12:44:43.606Z,83.92
2018-03-22T12:45:53.723Z,83.92
2018-03-22T12:47:03.906Z,84.11
2018-03-22T12:48:15.121Z,83.92
2018-03-22T12:49:26.242Z,83.54
2018-03-22T12:50:37.087Z,83.92
2018-03-22T12:51:48.505Z,83.92
2018-03-22T12:52:59.553Z,84.06
2018-03-22T12:54:10.749Z,84.01
2018-03-22T12:55:21.789Z,84.01
2018-03-22T12:56:32.145Z,84.21
2018-03-22T12:57:41.841Z,84.11
2018-03-22T12:58:52.940Z,84.01
2018-03-22T13:00:02.868Z,84.21
2018-03-22T13:01:13.087Z,84.3
2018-03-22T13:02:23.214Z,84.21
2018-03-22T13:03:33.386Z,84.4
2018-03-22T13:04:43.527Z,83.83
2018-03-22T13:05:53.407Z,84.01
2018-03-22T13:07:03.454Z,84.4
2018-03-22T13:08:12.826Z,84.21
2018-03-22T13:09:23.065Z,83.92
2018-03-22T13:10:32.975Z,83.83
2018-03-22T13:11:42.954Z,84.11
2018-03-22T13:12:53.211Z,84.21
2018-03-22T13:14:03.449Z,84.11
2018-03-22T13:15:13.352Z,83.92
2018-03-22T13:16:23.491Z,84.01
2018-03-22T13:17:33.359Z,84.11
2018-03-22T13:18:43.192Z,84.01
2018-03-22T13:19:53.508Z,83.92
2018-03-22T13:21:03.660Z,83.73
2018-03-22T13:22:13.679Z,84.01
2018-03-22T13:23:23.836Z,84.01
2018-03-22T13:24:33.979Z,84.01
2018-03-22T13:25:44.111Z,84.21
2018-03-22T13:26:54.377Z,84.3
2018-03-22T13:28:04.552Z,84.21
2018-03-22T13:29:14.428Z,83.54
2018-03-22T13:30:24.586Z,83.73
2018-03-22T13:31:34.489Z,83.83
2018-03-22T13:32:44.369Z,83.64
2018-03-22T13:33:54.336Z,83.64
2018-03-22T13:35:03.869Z,83.83
2018-03-22T13:36:14.090Z,83.92
2018-03-22T13:37:24.385Z,84.3
2018-03-22T13:38:34.254Z,84.21
2018-03-22T13:39:44.148Z,84.01
2018-03-22T13:40:54.099Z,83.92
2018-03-22T13:42:04.024Z,84.49
2018-03-22T13:43:14.169Z,84.4
2018-03-22T13:44:24.340Z,84.4
2018-03-22T13:45:34.569Z,84.21
2018-03-22T13:46:44.740Z,84.21
2018-03-22T13:47:54.972Z,84.21
2018-03-22T13:49:04.847Z,84.4
2018-03-22T13:50:14.783Z,84.11
2018-03-22T13:51:24.694Z,84.49
2018-03-22T13:52:34.566Z,84.4
2018-03-22T13:53:44.531Z,84.3
2018-03-22T13:54:54.413Z,84.21
2018-03-22T13:56:04.182Z,84.3
2018-03-22T13:57:13.830Z,84.11
2018-03-22T13:58:24.458Z,84.4
2018-03-22T13:59:35.379Z,84.49
2018-03-22T14:00:46.870Z,84.59
2018-03-22T14:01:57.654Z,84.78
2018-03-22T14:03:08.881Z,84.4
2018-03-22T14:04:20.849Z,84.87
2018-03-22T14:05:31.986Z,84.78
2018-03-22T14:06:43.224Z,84.68
2018-03-22T14:07:54.389Z,85.06
2018-03-22T14:09:05.724Z,84.87
2018-03-22T14:10:17.043Z,84.87
2018-03-22T14:11:28.214Z,85.06
2018-03-22T14:12:39.282Z,84.87
2018-03-22T14:13:50.878Z,84.87
2018-03-22T14:15:02.370Z,85.06
2018-03-22T14:16:13.286Z,84.68
2018-03-22T14:17:23.501Z,84.87
2018-03-22T14:18:33.677Z,84.87
2018-03-22T14:19:43.819Z,85.16
2018-03-22T14:20:54.003Z,84.59
2018-03-22T14:22:04.130Z,84.72
2018-03-22T14:23:14.095Z,84.68
2018-03-22T14:24:24.476Z,85.06
2018-03-22T14:25:34.771Z,84.72
2018-03-22T14:26:44.645Z,84.82
2018-03-22T14:27:54.816Z,84.72
2018-03-22T14:29:05.007Z,84.53
2018-03-22T14:30:15.160Z,84.63
2018-03-22T14:31:25.026Z,84.91
2018-03-22T14:32:35.167Z,84.91
2018-03-22T14:33:45.361Z,84.53
2018-03-22T14:34:55.309Z,84.16
2018-03-22T14:36:05.248Z,84.44
2018-03-22T14:37:15.387Z,84.44
2018-03-22T14:38:26.696Z,84.16
2018-03-22T14:39:36.923Z,84.53
2018-03-22T14:40:47.053Z,84.16
2018-03-22T14:41:56.944Z,84.16
2018-03-22T14:43:07.178Z,84.16
2018-03-22T14:44:17.372Z,83.87
2018-03-22T14:45:27.540Z,84.34
2018-03-22T14:46:37.737Z,84.25
2018-03-22T14:47:47.910Z,84.25
2018-03-22T14:48:58.091Z,84.63
2018-03-22T14:50:08.032Z,84.34
2018-03-22T14:51:17.567Z,84.72
2018-03-22T14:52:27.852Z,84.91
2018-03-22T14:53:38.102Z,84.63
2018-03-22T14:54:48.342Z,84.53
2018-03-22T14:55:58.247Z,84.63
2018-03-22T14:57:08.398Z,84.44
2018-03-22T14:58:18.555Z,84.53
2018-03-22T14:59:28.101Z,84.82
2018-03-22T15:00:38.408Z,85.01
2018-03-22T15:01:48.826Z,84.82
2018-03-22T15:02:59.004Z,84.91
2018-03-22T15:04:09.175Z,85.39
2018-03-22T15:05:19.061Z,84.91
2018-03-22T15:06:29.217Z,84.82
2018-03-22T15:07:39.399Z,84.82
2018-03-22T15:08:49.550Z,84.72